Time;durP1;ratioP1;P1;durP2;ratioP2;P2;SDS_P1;SDS_P2;PMS_P1;PMS_P2;Temp;Humidity;BMP_temperature;BMP_pressure;BME280_temperature;BME280_humidity;BME280_pressure;Samples;Min_cycle;Max_cycle;Signal;HPM_P1;HPM_P2
2021/11/19 00:01:14;;;;;;;25.13;3.03;;;;;;;;;;5061190;28;20048;-48
2021/11/19 00:03:41;;;;;;;30.65;3.28;;;;;;;;;;5059357;28;20033;-43
2021/11/19 00:06:08;;;;;;;24.73;2.33;;;;;;;;;;5071937;28;20127;-55
2021/11/19 00:08:36;;;;;;;26.80;2.70;;;;;;;;;;5068779;28;20031;-57
2021/11/19 00:11:04;;;;;;;27.45;3.30;;;;;;;;;;5061894;28;20036;-46
2021/11/19 00:13:32;;;;;;;24.98;2.70;;;;;;;;;;5060003;28;20029;-57
2021/11/19 00:15:59;;;;;;;20.55;2.80;;;;;;;;;;5061836;28;20091;-56
2021/11/19 00:18:27;;;;;;;30.50;3.05;;;;;;;;;;5059395;28;20473;-46
2021/11/19 00:20:54;;;;;;;35.30;3.30;;;;;;;;;;5055899;28;20024;-60
2021/11/19 00:23:22;;;;;;;30.02;3.53;;;;;;;;;;5057582;28;21496;-42
2021/11/19 00:26:08;;;;;;;29.38;3.22;;;;;;;;;;5055919;28;20468;-63
2021/11/19 00:28:35;;;;;;;36.70;3.42;;;;;;;;;;5057124;28;20055;-54
2021/11/19 00:31:05;;;;;;;30.05;3.47;;;;;;;;;;5063080;28;20389;-56
2021/11/19 00:33:32;;;;;;;33.72;3.63;;;;;;;;;;5054645;28;20190;-59
2021/11/19 00:35:59;;;;;;;29.92;3.85;;;;;;;;;;5052374;28;20052;-49
2021/11/19 00:38:28;;;;;;;27.42;3.85;;;;;;;;;;5056170;28;20068;-51
2021/11/19 00:41:05;;;;;;;27.65;3.70;;;;;;;;;;5060504;28;20483;-60
2021/11/19 00:43:32;;;;;;;21.13;2.72;;;;;;;;;;5054130;28;20043;-58
2021/11/19 00:46:00;;;;;;;25.35;3.70;;;;;;;;;;5063471;28;20024;-55
2021/11/19 00:48:38;;;;;;;20.05;2.95;;;;;;;;;;5059204;28;20021;-61
2021/11/19 00:51:17;;;;;;;25.88;3.00;;;;;;;;;;5055470;28;20546;-55
2021/11/19 00:53:46;;;;;;;26.77;3.42;;;;;;;;;;5059408;28;20025;-55
2021/11/19 00:56:15;;;;;;;24.38;3.50;;;;;;;;;;5058053;28;20393;-51
2021/11/19 00:58:42;;;;;;;19.83;3.03;;;;;;;;;;5056176;28;20492;-52
2021/11/19 01:01:12;;;;;;;16.42;2.80;;;;;;;;;;5055548;28;20561;-54
2021/11/19 01:03:39;;;;;;;24.33;3.47;;;;;;;;;;5052559;28;20009;-50
2021/11/19 01:06:06;;;;;;;17.58;2.85;;;;;;;;;;5058411;28;20142;-51
2021/11/19 01:08:33;;;;;;;22.30;3.10;;;;;;;;;;5054741;28;20044;-51
2021/11/19 01:11:01;;;;;;;22.67;2.85;;;;;;;;;;5059808;28;20029;-61
2021/11/19 01:13:30;;;;;;;22.83;3.35;;;;;;;;;;5055499;28;20035;-52
2021/11/19 01:15:59;;;;;;;24.00;2.97;;;;;;;;;;5055222;28;20029;-56
2021/11/19 01:18:26;;;;;;;28.27;3.28;;;;;;;;;;5056448;28;20027;-51
2021/11/19 01:21:01;;;;;;;40.72;4.50;;;;;;;;;;5056353;28;20119;-55
2021/11/19 01:23:29;;;;;;;32.63;3.67;;;;;;;;;;5056697;28;20020;-58
2021/11/19 01:25:59;;;;;;;33.13;3.92;;;;;;;;;;5052353;28;20234;-50
2021/11/19 01:28:26;;;;;;;28.52;3.38;;;;;;;;;;5054993;28;20028;-52
2021/11/19 01:31:06;;;;;;;35.88;4.75;;;;;;;;;;5066196;28;20032;-52
2021/11/19 01:33:33;;;;;;;30.27;4.20;;;;;;;;;;5058172;28;20021;-54
2021/11/19 01:36:00;;;;;;;29.45;4.35;;;;;;;;;;5057689;28;20040;-48
2021/11/19 01:38:28;;;;;;;33.50;4.65;;;;;;;;;;5059685;28;20116;-55
2021/11/19 01:40:59;;;;;;;33.03;5.70;;;;;;;;;;5056313;28;20021;-58
2021/11/19 01:43:27;;;;;;;40.42;5.53;;;;;;;;;;5054862;28;20029;-56
2021/11/19 01:45:56;;;;;;;33.47;5.40;;;;;;;;;;5054390;28;20013;-57
2021/11/19 01:48:26;;;;;;;34.35;5.80;;;;;;;;;;5061077;28;20017;-59
2021/11/19 01:50:59;;;;;;;43.85;7.53;;;;;;;;;;5054275;28;20029;-55
2021/11/19 01:53:46;;;;;;;42.45;8.43;;;;;;;;;;5054839;28;20490;-44
2021/11/19 01:56:20;;;;;;;38.85;7.57;;;;;;;;;;5054234;28;20036;-54
2021/11/19 01:58:54;;;;;;;49.03;9.25;;;;;;;;;;5059122;28;20028;-47
2021/11/19 02:01:24;;;;;;;40.40;8.00;;;;;;;;;;5057642;28;20025;-45
2021/11/19 02:03:54;;;;;;;38.13;7.38;;;;;;;;;;5067042;28;20096;-57
2021/11/19 02:06:27;;;;;;;45.22;8.10;;;;;;;;;;5071383;28;20379;-60
2021/11/19 02:08:55;;;;;;;39.90;7.15;;;;;;;;;;5065665;28;20020;-57
2021/11/19 02:11:41;;;;;;;42.25;8.27;;;;;;;;;;5069991;28;20205;-49
2021/11/19 02:14:08;;;;;;;32.53;7.25;;;;;;;;;;5067257;28;20044;-43
2021/11/19 02:16:43;;;;;;;37.38;7.20;;;;;;;;;;5069546;28;20031;-42
2021/11/19 02:19:12;;;;;;;39.85;6.40;;;;;;;;;;5069810;28;20749;-42
2021/11/19 02:21:47;;;;;;;35.08;6.82;;;;;;;;;;5069533;28;20024;-42
2021/11/19 02:24:14;;;;;;;27.38;5.85;;;;;;;;;;5069561;28;20016;-50
2021/11/19 02:26:45;;;;;;;33.50;6.13;;;;;;;;;;5069483;28;20481;-43
2021/11/19 02:29:12;;;;;;;30.13;5.63;;;;;;;;;;5069693;28;20021;-57
2021/11/19 02:31:54;;;;;;;29.45;5.75;;;;;;;;;;5056693;28;20055;-44
2021/11/19 02:34:23;;;;;;;32.00;6.68;;;;;;;;;;5066946;28;20024;-43
2021/11/19 02:36:56;;;;;;;35.25;5.90;;;;;;;;;;5071014;28;20469;-45
2021/11/19 02:39:26;;;;;;;31.15;5.72;;;;;;;;;;5070196;28;20041;-41
2021/11/19 02:41:55;;;;;;;26.55;5.35;;;;;;;;;;5070587;28;20028;-40
2021/11/19 02:44:24;;;;;;;27.42;4.88;;;;;;;;;;5070838;28;20032;-43
2021/11/19 02:46:53;;;;;;;31.58;5.75;;;;;;;;;;5055953;28;20532;-41
2021/11/19 02:49:20;;;;;;;27.25;5.18;;;;;;;;;;5069764;28;20036;-41
2021/11/19 02:51:48;;;;;;;22.60;4.75;;;;;;;;;;5069689;28;20038;-44
2021/11/19 02:54:17;;;;;;;23.80;5.22;;;;;;;;;;5070085;28;20608;-44
2021/11/19 02:56:45;;;;;;;23.13;5.28;;;;;;;;;;5069607;28;20096;-42
2021/11/19 02:59:12;;;;;;;26.95;5.13;;;;;;;;;;5069560;28;20113;-43
2021/11/19 03:01:41;;;;;;;30.05;5.07;;;;;;;;;;5069737;28;20035;-48
2021/11/19 03:04:18;;;;;;;21.52;4.80;;;;;;;;;;5069841;28;20013;-45
2021/11/19 03:06:50;;;;;;;23.48;5.22;;;;;;;;;;5068333;28;20033;-42
2021/11/19 03:09:19;;;;;;;20.40;4.30;;;;;;;;;;5069815;28;20019;-43
2021/11/19 03:11:46;;;;;;;20.10;4.70;;;;;;;;;;5069875;28;20372;-43
2021/11/19 03:14:14;;;;;;;17.48;4.10;;;;;;;;;;5069491;28;20013;-40
2021/11/19 03:16:42;;;;;;;20.50;4.32;;;;;;;;;;5068200;28;20020;-44
2021/11/19 03:19:09;;;;;;;20.75;4.55;;;;;;;;;;5069850;28;20067;-46
2021/11/19 03:21:36;;;;;;;19.67;4.75;;;;;;;;;;5058359;28;20017;-45
2021/11/19 03:24:03;;;;;;;19.13;4.50;;;;;;;;;;5051373;28;20056;-44
2021/11/19 03:26:33;;;;;;;16.45;3.78;;;;;;;;;;5051156;28;20028;-46
2021/11/19 03:29:00;;;;;;;14.63;4.25;;;;;;;;;;5051079;28;20104;-45
2021/11/19 03:31:27;;;;;;;20.80;4.35;;;;;;;;;;5053825;28;20037;-46
2021/11/19 03:33:55;;;;;;;19.98;4.85;;;;;;;;;;5054754;28;20423;-43
2021/11/19 03:36:23;;;;;;;17.35;3.63;;;;;;;;;;5054909;28;20112;-48
2021/11/19 03:38:51;;;;;;;17.95;4.25;;;;;;;;;;5054086;28;20540;-45
2021/11/19 03:41:20;;;;;;;16.35;4.03;;;;;;;;;;5053516;28;20060;-43
2021/11/19 03:43:50;;;;;;;16.73;4.85;;;;;;;;;;5053569;28;20362;-47
2021/11/19 03:46:19;;;;;;;17.02;3.17;;;;;;;;;;5052118;28;20516;-45
2021/11/19 03:48:46;;;;;;;22.10;5.10;;;;;;;;;;5053407;28;20021;-45
2021/11/19 03:51:24;;;;;;;16.35;3.70;;;;;;;;;;5053433;28;20074;-43
2021/11/19 03:53:51;;;;;;;14.27;3.92;;;;;;;;;;5053330;28;20493;-45
2021/11/19 03:56:18;;;;;;;19.80;4.53;;;;;;;;;;5053386;28;20029;-46
2021/11/19 03:58:45;;;;;;;17.60;3.85;;;;;;;;;;5053267;28;20110;-46
2021/11/19 04:01:19;;;;;;;12.02;2.97;;;;;;;;;;5053280;28;20534;-47
2021/11/19 04:03:47;;;;;;;19.40;3.72;;;;;;;;;;5053036;28;20024;-46
2021/11/19 04:06:15;;;;;;;12.55;2.95;;;;;;;;;;5053102;28;20040;-47
2021/11/19 04:08:42;;;;;;;15.45;3.80;;;;;;;;;;5053038;28;20385;-44
2021/11/19 04:11:10;;;;;;;14.88;3.00;;;;;;;;;;5053078;28;20547;-48
2021/11/19 04:13:37;;;;;;;12.80;3.38;;;;;;;;;;5053069;28;20021;-45
2021/11/19 04:16:12;;;;;;;11.52;3.60;;;;;;;;;;5052930;28;20361;-44
2021/11/19 04:18:40;;;;;;;13.93;3.55;;;;;;;;;;5053089;28;20076;-46
2021/11/19 04:21:08;;;;;;;13.93;3.63;;;;;;;;;;5052932;28;20623;-44
2021/11/19 04:23:35;;;;;;;14.63;3.45;;;;;;;;;;5052926;28;20499;-47
2021/11/19 04:26:03;;;;;;;15.27;2.75;;;;;;;;;;5052977;28;20120;-45
2021/11/19 04:28:30;;;;;;;18.48;3.85;;;;;;;;;;5052727;28;20031;-45
2021/11/19 04:30:58;;;;;;;15.43;3.20;;;;;;;;;;5052696;28;20531;-45
2021/11/19 04:33:25;;;;;;;12.00;2.90;;;;;;;;;;5052864;28;20051;-45
2021/11/19 04:35:52;;;;;;;13.15;3.35;;;;;;;;;;5052572;28;20044;-45
2021/11/19 04:38:20;;;;;;;13.05;3.03;;;;;;;;;;4974646;28;2238958;-45
2021/11/19 04:40:48;;;;;;;17.90;3.53;;;;;;;;;;5053790;28;20052;-47
2021/11/19 04:43:15;;;;;;;12.10;3.50;;;;;;;;;;5052590;28;20032;-45
2021/11/19 04:45:42;;;;;;;19.55;4.72;;;;;;;;;;5053640;28;20021;-42
2021/11/19 04:48:09;;;;;;;10.43;2.95;;;;;;;;;;5054022;28;20487;-48
2021/11/19 04:50:37;;;;;;;10.90;2.67;;;;;;;;;;5053600;28;20033;-46
2021/11/19 04:53:06;;;;;;;14.45;3.35;;;;;;;;;;5053527;28;20025;-44
2021/11/19 04:55:33;;;;;;;10.30;2.80;;;;;;;;;;5053375;28;20017;-45
2021/11/19 04:58:00;;;;;;;11.10;3.05;;;;;;;;;;5053452;28;20132;-44
2021/11/19 05:00:30;;;;;;;13.98;3.55;;;;;;;;;;5053195;28;20037;-44
2021/11/19 05:02:57;;;;;;;10.40;2.38;;;;;;;;;;5053206;28;20467;-47
2021/11/19 05:05:26;;;;;;;13.20;2.92;;;;;;;;;;5053410;28;20027;-44
2021/11/19 05:07:53;;;;;;;10.10;2.75;;;;;;;;;;5053119;28;20023;-43
2021/11/19 05:10:20;;;;;;;10.93;3.42;;;;;;;;;;5053023;28;20052;-45
2021/11/19 05:12:50;;;;;;;12.38;2.95;;;;;;;;;;5053197;28;20017;-45
2021/11/19 05:15:17;;;;;;;14.63;3.22;;;;;;;;;;5053025;28;20027;-44
2021/11/19 05:17:44;;;;;;;12.02;2.78;;;;;;;;;;5052991;28;20017;-45
2021/11/19 05:20:12;;;;;;;11.02;2.78;;;;;;;;;;5053049;28;20036;-44
2021/11/19 05:22:39;;;;;;;12.02;2.40;;;;;;;;;;5052877;28;20100;-44
2021/11/19 05:25:08;;;;;;;11.68;2.60;;;;;;;;;;5052725;28;20021;-45
2021/11/19 05:27:35;;;;;;;11.32;2.80;;;;;;;;;;5052875;28;20032;-43
2021/11/19 05:30:02;;;;;;;10.50;2.78;;;;;;;;;;5052957;28;20032;-45
2021/11/19 05:32:29;;;;;;;11.07;2.65;;;;;;;;;;5052738;28;20048;-46
2021/11/19 05:34:56;;;;;;;10.27;2.30;;;;;;;;;;5052633;28;20032;-45
2021/11/19 05:37:23;;;;;;;9.05;2.33;;;;;;;;;;5052491;28;20051;-47
2021/11/19 05:39:50;;;;;;;9.00;2.72;;;;;;;;;;5052334;28;20471;-47
2021/11/19 05:42:17;;;;;;;10.38;2.40;;;;;;;;;;5052616;28;20484;-46
2021/11/19 05:44:44;;;;;;;12.02;2.78;;;;;;;;;;5052612;28;20021;-45
2021/11/19 05:47:11;;;;;;;16.85;2.80;;;;;;;;;;5052152;28;20385;-43
2021/11/19 05:49:39;;;;;;;9.25;2.90;;;;;;;;;;5052334;28;20022;-45
2021/11/19 05:52:07;;;;;;;6.47;2.53;;;;;;;;;;5052404;28;20087;-46
2021/11/19 05:54:35;;;;;;;7.78;2.55;;;;;;;;;;5051850;28;20079;-44
2021/11/19 05:57:02;;;;;;;10.48;2.88;;;;;;;;;;5052266;28;20103;-44
2021/11/19 05:59:30;;;;;;;9.38;2.55;;;;;;;;;;5052282;28;20388;-48
2021/11/19 06:01:58;;;;;;;8.75;2.72;;;;;;;;;;5051956;28;20029;-46
2021/11/19 06:04:25;;;;;;;9.82;2.65;;;;;;;;;;5052146;28;20031;-45
2021/11/19 06:06:52;;;;;;;9.38;2.65;;;;;;;;;;5051546;28;20104;-43
2021/11/19 06:09:27;;;;;;;8.57;2.30;;;;;;;;;;5050683;28;20068;-45
2021/11/19 06:11:59;;;;;;;10.20;2.63;;;;;;;;;;5052052;28;20025;-44
2021/11/19 06:14:30;;;;;;;9.57;2.25;;;;;;;;;;5052098;28;20025;-45
2021/11/19 06:16:59;;;;;;;10.85;2.58;;;;;;;;;;5052083;28;20021;-46
2021/11/19 06:19:30;;;;;;;8.68;2.15;;;;;;;;;;5051924;28;20021;-44
2021/11/19 06:22:07;;;;;;;7.20;2.40;;;;;;;;;;5051797;28;20361;-44
2021/11/19 06:24:36;;;;;;;8.50;2.05;;;;;;;;;;5050635;28;20028;-44
2021/11/19 06:27:03;;;;;;;7.70;2.70;;;;;;;;;;5050667;28;20021;-45
2021/11/19 06:29:30;;;;;;;6.60;2.15;;;;;;;;;;5051855;28;20025;-45
2021/11/19 06:31:58;;;;;;;7.25;1.92;;;;;;;;;;5051752;28;20358;-46
2021/11/19 06:34:25;;;;;;;8.75;2.10;;;;;;;;;;5051815;28;20539;-42
2021/11/19 06:36:53;;;;;;;8.60;2.10;;;;;;;;;;5051547;28;20503;-45
2021/11/19 06:39:20;;;;;;;7.50;2.22;;;;;;;;;;5051508;28;20056;-47
2021/11/19 06:41:47;;;;;;;8.43;2.25;;;;;;;;;;5051867;28;20021;-43
2021/11/19 06:44:14;;;;;;;8.63;2.10;;;;;;;;;;5051677;28;20419;-45
2021/11/19 06:46:41;;;;;;;6.88;2.47;;;;;;;;;;5051497;28;20025;-45
2021/11/19 06:49:10;;;;;;;7.53;2.30;;;;;;;;;;5050313;28;20051;-46
2021/11/19 06:51:37;;;;;;;5.95;1.98;;;;;;;;;;5051608;28;20039;-43
2021/11/19 06:54:05;;;;;;;5.72;1.92;;;;;;;;;;5051646;28;20071;-46
2021/11/19 06:56:32;;;;;;;6.32;2.13;;;;;;;;;;5051531;28;20025;-47
2021/11/19 06:58:59;;;;;;;7.47;2.10;;;;;;;;;;5051656;28;20021;-45
2021/11/19 07:01:26;;;;;;;9.82;2.03;;;;;;;;;;5051482;28;20035;-46
2021/11/19 07:03:53;;;;;;;7.65;2.08;;;;;;;;;;5050015;28;20025;-42
2021/11/19 07:06:20;;;;;;;7.72;1.90;;;;;;;;;;5054344;28;20112;-45
2021/11/19 07:08:47;;;;;;;6.32;1.90;;;;;;;;;;5055402;28;20092;-45
2021/11/19 07:11:16;;;;;;;6.53;2.22;;;;;;;;;;5055529;28;20033;-45
2021/11/19 07:13:43;;;;;;;8.10;2.13;;;;;;;;;;5055554;28;20047;-48
2021/11/19 07:16:10;;;;;;;9.25;1.85;;;;;;;;;;5055192;28;20096;-46
2021/11/19 07:18:37;;;;;;;5.90;2.00;;;;;;;;;;5055168;28;20025;-48
2021/11/19 07:21:04;;;;;;;6.03;1.90;;;;;;;;;;5055442;28;20346;-48
2021/11/19 07:23:31;;;;;;;9.43;2.20;;;;;;;;;;5055216;28;20017;-45
2021/11/19 07:25:58;;;;;;;6.53;1.90;;;;;;;;;;5055045;28;20048;-44
2021/11/19 07:28:26;;;;;;;5.97;1.80;;;;;;;;;;5055235;28;20100;-44
2021/11/19 07:30:55;;;;;;;7.30;2.15;;;;;;;;;;5054864;28;20120;-44
2021/11/19 07:33:23;;;;;;;7.65;2.03;;;;;;;;;;5054917;28;20491;-44
2021/11/19 07:35:50;;;;;;;7.20;1.98;;;;;;;;;;5054971;28;20107;-42
2021/11/19 07:38:18;;;;;;;7.40;2.00;;;;;;;;;;5054704;28;20049;-47
2021/11/19 07:40:46;;;;;;;7.60;1.90;;;;;;;;;;5054760;28;20017;-45
2021/11/19 07:43:14;;;;;;;5.35;1.95;;;;;;;;;;5054793;28;20095;-44
2021/11/19 07:45:41;;;;;;;6.85;1.67;;;;;;;;;;5054985;28;20029;-43
2021/11/19 07:48:12;;;;;;;5.70;1.90;;;;;;;;;;5054621;28;20614;-45
2021/11/19 07:50:39;;;;;;;5.65;1.77;;;;;;;;;;5054671;28;20059;-43
2021/11/19 07:53:06;;;;;;;4.75;1.65;;;;;;;;;;5054916;28;20053;-47
2021/11/19 07:55:34;;;;;;;5.00;1.70;;;;;;;;;;5054653;28;20123;-45
2021/11/19 07:58:01;;;;;;;5.60;2.00;;;;;;;;;;5054596;28;20100;-43
2021/11/19 08:00:30;;;;;;;6.10;1.95;;;;;;;;;;5054533;28;20488;-42
2021/11/19 08:02:57;;;;;;;8.90;2.00;;;;;;;;;;5054413;28;20021;-42
2021/11/19 08:05:24;;;;;;;4.40;1.45;;;;;;;;;;5054431;28;20082;-42
2021/11/19 08:07:51;;;;;;;7.28;1.70;;;;;;;;;;5054267;28;20029;-42
2021/11/19 08:10:19;;;;;;;5.35;2.08;;;;;;;;;;5054323;28;20055;-46
2021/11/19 08:12:46;;;;;;;5.20;1.60;;;;;;;;;;5054340;28;20048;-41
2021/11/19 08:15:15;;;;;;;5.15;1.60;;;;;;;;;;5054276;28;20100;-45
2021/11/19 08:17:47;;;;;;;6.55;2.00;;;;;;;;;;5053948;28;20622;-45
2021/11/19 08:20:19;;;;;;;7.72;2.13;;;;;;;;;;5054184;28;20021;-48
2021/11/19 08:22:47;;;;;;;5.95;1.65;;;;;;;;;;5054145;28;20082;-44
2021/11/19 08:25:14;;;;;;;7.65;2.03;;;;;;;;;;5054147;28;20021;-45
2021/11/19 08:27:43;;;;;;;4.97;1.40;;;;;;;;;;5053898;28;20096;-45
2021/11/19 08:30:13;;;;;;;5.60;1.73;;;;;;;;;;5053666;28;20020;-43
2021/11/19 08:32:41;;;;;;;5.13;2.03;;;;;;;;;;5054087;28;20025;-46
2021/11/19 08:35:09;;;;;;;5.60;1.75;;;;;;;;;;5052611;28;20028;-45
2021/11/19 08:37:36;;;;;;;7.97;1.75;;;;;;;;;;5053161;28;20590;-43
2021/11/19 08:40:04;;;;;;;5.85;2.00;;;;;;;;;;5053631;28;20045;-45
2021/11/19 08:42:32;;;;;;;5.40;1.58;;;;;;;;;;5053566;28;20464;-43
2021/11/19 08:44:58;;;;;;;4.68;1.30;;;;;;;;;;5053616;28;20036;-42
2021/11/19 08:47:25;;;;;;;7.75;2.03;;;;;;;;;;5053680;28;20048;-45
2021/11/19 08:49:53;;;;;;;5.88;1.58;;;;;;;;;;5053805;28;20029;-44
2021/11/19 08:52:21;;;;;;;4.53;1.63;;;;;;;;;;5053558;28;20530;-47
2021/11/19 08:54:50;;;;;;;3.88;1.63;;;;;;;;;;5053408;28;20028;-45
2021/11/19 08:57:18;;;;;;;6.60;1.60;;;;;;;;;;5053267;28;20060;-44
2021/11/19 08:59:47;;;;;;;4.57;1.30;;;;;;;;;;5053387;28;20025;-46
2021/11/19 09:02:15;;;;;;;3.75;1.25;;;;;;;;;;5053308;28;20479;-47
2021/11/19 09:04:42;;;;;;;4.82;1.70;;;;;;;;;;5053487;28;20108;-47
2021/11/19 09:07:09;;;;;;;5.75;1.67;;;;;;;;;;5053194;28;20090;-47
2021/11/19 09:09:36;;;;;;;6.63;1.40;;;;;;;;;;5053213;28;20111;-42
2021/11/19 09:12:03;;;;;;;5.70;1.50;;;;;;;;;;5053059;28;20082;-46
2021/11/19 09:14:29;;;;;;;7.38;1.70;;;;;;;;;;5053124;28;20029;-43
2021/11/19 09:17:12;;;;;;;6.13;1.80;;;;;;;;;;5053038;28;20052;-46
2021/11/19 09:19:41;;;;;;;7.25;1.48;;;;;;;;;;5052969;28;20029;-46
2021/11/19 09:22:17;;;;;;;6.60;1.60;;;;;;;;;;5069299;28;20028;-45
2021/11/19 09:24:44;;;;;;;8.02;2.10;;;;;;;;;;5072957;28;20071;-44
2021/11/19 09:27:14;;;;;;;7.13;1.50;;;;;;;;;;5072260;28;20032;-48
2021/11/19 09:29:46;;;;;;;4.03;1.27;;;;;;;;;;5072169;28;20099;-49
2021/11/19 09:32:13;;;;;;;5.05;1.70;;;;;;;;;;5072470;28;20033;-46
2021/11/19 09:34:43;;;;;;;4.95;1.67;;;;;;;;;;5072541;28;20096;-48
2021/11/19 09:37:11;;;;;;;5.35;1.83;;;;;;;;;;5072231;28;20498;-49
2021/11/19 09:39:42;;;;;;;7.72;2.20;;;;;;;;;;5071703;28;20502;-42
2021/11/19 09:42:09;;;;;;;4.05;1.17;;;;;;;;;;5071813;28;20021;-42
2021/11/19 09:44:45;;;;;;;5.68;1.70;;;;;;;;;;5072042;28;20601;-45
2021/11/19 09:47:29;;;;;;;6.35;1.25;;;;;;;;;;5071695;28;20074;-44
2021/11/19 09:50:14;;;;;;;5.93;1.70;;;;;;;;;;5071558;28;20017;-44
2021/11/19 09:52:50;;;;;;;5.10;1.50;;;;;;;;;;5071503;28;20028;-44
2021/11/19 09:55:23;;;;;;;5.53;1.40;;;;;;;;;;5071550;28;20063;-45
2021/11/19 09:58:13;;;;;;;6.07;1.58;;;;;;;;;;5071824;28;20017;-45
2021/11/19 10:00:45;;;;;;;6.20;1.77;;;;;;;;;;5062863;28;20032;-45
2021/11/19 10:03:31;;;;;;;4.57;1.60;;;;;;;;;;5049811;28;20025;-42
2021/11/19 10:05:58;;;;;;;6.18;1.60;;;;;;;;;;5050503;28;20063;-44
2021/11/19 10:08:46;;;;;;;7.53;1.80;;;;;;;;;;5051884;28;20032;-45
2021/11/19 10:11:13;;;;;;;7.57;1.50;;;;;;;;;;5050463;28;20033;-46
2021/11/19 10:13:46;;;;;;;7.85;1.88;;;;;;;;;;5051877;28;20013;-44
2021/11/19 10:16:19;;;;;;;5.63;1.50;;;;;;;;;;5051813;28;20079;-46
2021/11/19 10:18:58;;;;;;;12.68;1.58;;;;;;;;;;5051744;28;20025;-43
2021/11/19 10:21:33;;;;;;;7.25;1.70;;;;;;;;;;5051040;28;20452;-43
2021/11/19 10:24:07;;;;;;;9.73;1.95;;;;;;;;;;5050776;28;20017;-44
2021/11/19 10:26:37;;;;;;;8.02;1.45;;;;;;;;;;5051047;28;20173;-43
2021/11/19 10:29:21;;;;;;;24.48;2.97;;;;;;;;;;5058176;28;20048;-40
2021/11/19 10:31:49;;;;;;;18.70;2.83;;;;;;;;;;5070436;28;20056;-41
2021/11/19 10:34:42;;;;;;;32.58;3.25;;;;;;;;;;5070889;28;20491;-41
2021/11/19 10:37:09;;;;;;;22.63;3.40;;;;;;;;;;5071468;28;20039;-42
2021/11/19 10:39:42;;;;;;;25.48;3.45;;;;;;;;;;5070344;28;20073;-44
2021/11/19 10:42:23;;;;;;;46.55;4.63;;;;;;;;;;5071010;28;20028;-43
2021/11/19 10:44:59;;;;;;;30.25;3.80;;;;;;;;;;5068405;28;20024;-44
2021/11/19 10:47:38;;;;;;;94.88;6.10;;;;;;;;;;5071540;28;20025;-44
2021/11/19 10:50:30;;;;;;;36.33;4.45;;;;;;;;;;5071543;28;20017;-42
2021/11/19 10:53:15;;;;;;;46.42;4.40;;;;;;;;;;5071581;28;20062;-40
2021/11/19 10:55:57;;;;;;;34.22;4.25;;;;;;;;;;5071892;28;20020;-43
2021/11/19 10:58:41;;;;;;;28.65;3.35;;;;;;;;;;5071753;28;20021;-46
2021/11/19 11:01:18;;;;;;;27.08;3.47;;;;;;;;;;5071518;28;20029;-44
2021/11/19 11:04:00;;;;;;;42.55;3.80;;;;;;;;;;5071756;28;20468;-44
2021/11/19 11:06:33;;;;;;;28.90;4.15;;;;;;;;;;5071579;28;20052;-45
2021/11/19 11:09:16;;;;;;;46.15;4.40;;;;;;;;;;5070559;28;20055;-46
2021/11/19 11:11:43;;;;;;;27.63;2.70;;;;;;;;;;5070534;28;20062;-44
2021/11/19 11:14:10;;;;;;;35.67;3.53;;;;;;;;;;5070926;28;20028;-51
2021/11/19 11:16:43;;;;;;;41.60;3.72;;;;;;;;;;5071117;28;20029;-45
2021/11/19 11:19:10;;;;;;;46.20;3.58;;;;;;;;;;5070965;28;20443;-42
2021/11/19 11:22:03;;;;;;;37.50;3.25;;;;;;;;;;5070300;28;20029;-43
2021/11/19 11:24:37;;;;;;;25.02;2.78;;;;;;;;;;5068425;28;20028;-41
2021/11/19 11:27:15;;;;;;;116.10;10.43;;;;;;;;;;5070129;28;20013;-42
2021/11/19 11:29:47;;;;;;;100.00;9.13;;;;;;;;;;5071487;28;20021;-41
2021/11/19 11:32:13;;;;;;;;;;;;;;;;;;5071731;28;20024;-41
2021/11/19 11:34:44;;;;;;;61.78;4.93;;;;;;;;;;5071183;28;19912;-42
2021/11/19 11:37:29;;;;;;;45.30;4.47;;;;;;;;;;5071176;28;20398;-41
2021/11/19 11:40:00;;;;;;;31.42;3.35;;;;;;;;;;5071082;28;20045;-42
2021/11/19 11:42:27;;;;;;;32.72;3.38;;;;;;;;;;5071361;28;20017;-38
2021/11/19 11:44:56;;;;;;;18.50;2.83;;;;;;;;;;5071070;28;20025;-39
2021/11/19 11:47:32;;;;;;;36.85;4.25;;;;;;;;;;5071003;28;20495;-38
2021/11/19 11:50:00;;;;;;;177.60;13.02;;;;;;;;;;5071025;28;20031;-39
2021/11/19 11:52:53;;;;;;;75.45;5.93;;;;;;;;;;5073543;28;20037;-39
2021/11/19 11:55:32;;;;;;;48.25;4.75;;;;;;;;;;5051532;28;20033;-39
2021/11/19 11:58:05;;;;;;;28.40;3.75;;;;;;;;;;5074617;28;20059;-39
2021/11/19 12:01:08;;;;;;;31.58;4.32;;;;;;;;;;5074596;28;20507;-39
2021/11/19 12:03:35;;;;;;;92.07;9.30;;;;;;;;;;5012728;28;20056;-40
2021/11/19 12:06:10;;;;;;;45.85;3.85;;;;;;;;;;5062298;28;20595;-40
2021/11/19 12:09:03;;;;;;;39.10;4.05;;;;;;;;;;5074354;28;20500;-39
2021/11/19 12:11:44;;;;;;;104.75;7.00;;;;;;;;;;5049982;28;20438;-39
2021/11/19 12:14:14;;;;;;;49.67;5.53;;;;;;;;;;5074159;28;20016;-41
2021/11/19 12:17:02;;;;;;;45.90;4.28;;;;;;;;;;5074055;28;20051;-40
2021/11/19 12:19:40;;;;;;;40.33;3.80;;;;;;;;;;5074132;28;20025;-40
2021/11/19 12:22:14;;;;;;;55.92;4.15;;;;;;;;;;5073970;28;20028;-39
2021/11/19 12:24:50;;;;;;;51.65;4.80;;;;;;;;;;5074064;28;20107;-39
2021/11/19 12:27:25;;;;;;;28.13;3.28;;;;;;;;;;5074115;28;20028;-39
2021/11/19 12:29:55;;;;;;;21.65;3.05;;;;;;;;;;5073945;28;20009;-39
2021/11/19 12:32:24;;;;;;;24.48;3.10;;;;;;;;;;5073913;28;20067;-40
2021/11/19 12:34:55;;;;;;;27.10;2.90;;;;;;;;;;5073880;28;20016;-41
2021/11/19 12:37:33;;;;;;;28.92;3.17;;;;;;;;;;5073832;28;20028;-40
2021/11/19 12:40:00;;;;;;;23.67;2.63;;;;;;;;;;5073646;28;20040;-41
2021/11/19 12:42:36;;;;;;;21.08;2.90;;;;;;;;;;5073749;28;20024;-41
2021/11/19 12:45:12;;;;;;;11.68;1.75;;;;;;;;;;5073747;28;20470;-40
2021/11/19 12:48:02;;;;;;;16.63;2.83;;;;;;;;;;5073812;28;20016;-40
2021/11/19 12:50:33;;;;;;;18.55;2.60;;;;;;;;;;5073208;28;20364;-39
2021/11/19 12:53:00;;;;;;;290.02;17.65;;;;;;;;;;5073677;28;20025;-40
2021/11/19 12:55:27;;;;;;;348.50;20.45;;;;;;;;;;5073403;28;20044;-40
2021/11/19 12:57:59;;;;;;;195.93;15.23;;;;;;;;;;5073436;28;20033;-40
2021/11/19 13:00:39;;;;;;;120.60;9.77;;;;;;;;;;5073424;28;20139;-40
2021/11/19 13:03:24;;;;;;;66.40;5.55;;;;;;;;;;5072252;28;20032;-40
2021/11/19 13:05:54;;;;;;;93.88;7.50;;;;;;;;;;5073327;28;20069;-40
2021/11/19 13:08:36;;;;;;;78.93;7.03;;;;;;;;;;5073184;28;20025;-40
2021/11/19 13:11:29;;;;;;;63.78;5.60;;;;;;;;;;5073160;28;20036;-40
2021/11/19 13:14:24;;;;;;;47.00;4.68;;;;;;;;;;5037459;28;20033;-41
2021/11/19 13:16:51;;;;;;;31.83;3.13;;;;;;;;;;5070557;28;20030;-38
2021/11/19 13:19:32;;;;;;;40.10;3.42;;;;;;;;;;5056229;28;20099;-39
2021/11/19 13:25:06;;;;;;;38.92;3.50;;;;;;;;;;4964054;28;20045;-39
2021/11/19 13:27:38;;;;;;;35.20;3.33;;;;;;;;;;5017187;28;20038;-40
2021/11/19 13:30:07;;;;;;;16.80;2.90;;;;;;;;;;5014265;28;20112;-39
2021/11/19 13:32:34;;;;;;;27.75;2.88;;;;;;;;;;5024216;28;20493;-39
2021/11/19 13:35:06;;;;;;;37.60;3.90;;;;;;;;;;5026585;28;20025;-38
2021/11/19 13:37:35;;;;;;;26.98;3.85;;;;;;;;;;5027745;28;20030;-39
2021/11/19 13:40:20;;;;;;;24.05;3.03;;;;;;;;;;5021909;28;20100;-40
2021/11/19 13:42:51;;;;;;;24.60;3.05;;;;;;;;;;5021592;28;20053;-41
2021/11/19 13:45:39;;;;;;;26.15;4.22;;;;;;;;;;5022924;28;20037;-40
2021/11/19 13:48:05;;;;;;;14.32;2.15;;;;;;;;;;5011130;28;20112;-40
2021/11/19 13:50:44;;;;;;;25.27;3.28;;;;;;;;;;5023322;28;20025;-39
2021/11/19 13:53:21;;;;;;;36.30;2.97;;;;;;;;;;5028817;28;20113;-41
2021/11/19 13:55:54;;;;;;;32.45;2.75;;;;;;;;;;5030899;28;20025;-41
2021/11/19 13:58:40;;;;;;;25.25;2.65;;;;;;;;;;5018967;28;20034;-39
2021/11/19 14:01:16;;;;;;;75.40;6.05;;;;;;;;;;5024666;28;20615;-39
2021/11/19 14:03:43;;;;;;;59.97;7.43;;;;;;;;;;5018908;28;20062;-39
2021/11/19 14:06:14;;;;;;;21.92;3.13;;;;;;;;;;5019451;28;20041;-39
2021/11/19 14:08:53;;;;;;;21.27;3.53;;;;;;;;;;5021082;28;20022;-39
2021/11/19 14:11:22;;;;;;;20.70;2.78;;;;;;;;;;5026239;28;20112;-41
2021/11/19 14:13:49;;;;;;;21.90;3.08;;;;;;;;;;5025631;28;20036;-39
2021/11/19 14:16:23;;;;;;;18.30;2.10;;;;;;;;;;5029767;28;20584;-40
2021/11/19 14:19:08;;;;;;;50.40;4.43;;;;;;;;;;5025374;28;20080;-39
2021/11/19 14:21:59;;;;;;;38.63;4.22;;;;;;;;;;5019623;28;20048;-40
2021/11/19 14:24:26;;;;;;;24.20;2.45;;;;;;;;;;5012882;28;20038;-40
2021/11/19 14:27:02;;;;;;;18.17;2.60;;;;;;;;;;5025357;28;20051;-40
2021/11/19 14:29:34;;;;;;;16.02;2.78;;;;;;;;;;5020895;28;20068;-40
2021/11/19 14:32:05;;;;;;;44.45;3.45;;;;;;;;;;5022664;28;20371;-40
2021/11/19 14:34:41;;;;;;;32.78;4.03;;;;;;;;;;5013926;28;20101;-41
2021/11/19 14:37:13;;;;;;;32.67;4.15;;;;;;;;;;5016219;28;20039;-41
2021/11/19 14:39:40;;;;;;;31.05;3.72;;;;;;;;;;5026596;28;20049;-41
2021/11/19 14:42:18;;;;;;;21.63;3.70;;;;;;;;;;5028827;28;20096;-43
2021/11/19 14:44:55;;;;;;;22.10;3.60;;;;;;;;;;5017957;28;20437;-40
2021/11/19 14:47:24;;;;;;;28.48;3.40;;;;;;;;;;5021132;28;20026;-41
2021/11/19 14:50:00;;;;;;;19.02;3.30;;;;;;;;;;5020834;28;20022;-40
2021/11/19 14:52:36;;;;;;;26.58;3.83;;;;;;;;;;5024242;28;20038;-40
2021/11/19 14:55:29;;;;;;;20.75;3.30;;;;;;;;;;5024987;28;20108;-40
2021/11/19 14:58:15;;;;;;;23.23;3.05;;;;;;;;;;5018525;28;20073;-42
2021/11/19 15:00:45;;;;;;;29.73;3.85;;;;;;;;;;5026138;28;20120;-40